Time;durP1;ratioP1;P1;durP2;ratioP2;P2;SDS_P1;SDS_P2;PMS_P1;PMS_P2;Temp;Humidity;BMP_temperature;BMP_pressure;BME280_temperature;BME280_humidity;BME280_pressure;Samples;Min_cycle;Max_cycle;Signal;HPM_P1;HPM_P2
2021/07/20 00:00:42;;;;;;;1033.35;531.63;;;21.40;79.50;;;;;;5029861;28;20468;-78
2021/07/20 00:03:10;;;;;;;1516.75;765.78;;;21.40;79.60;;;;;;5029669;28;20439;-76
2021/07/20 00:05:39;;;;;;;1999.90;999.90;;;21.30;79.70;;;;;;5029758;28;20463;-76
2021/07/20 00:08:06;;;;;;;1999.90;999.90;;;21.30;79.90;;;;;;5029559;28;20029;-77
2021/07/20 00:10:55;;;;;;;1027.05;525.53;;;21.30;80.20;;;;;;5029714;28;20499;-77
2021/07/20 00:13:21;;;;;;;1999.90;999.90;;;21.20;80.60;;;;;;5029429;28;20025;-76
2021/07/20 00:15:47;;;;;;;61.03;57.88;;;21.20;80.60;;;;;;5029482;28;20044;-77
2021/07/20 00:18:15;;;;;;;71.60;67.35;;;21.10;80.90;;;;;;5029505;28;20025;-77
2021/07/20 00:20:43;;;;;;;1036.78;534.88;;;21.00;81.40;;;;;;5029441;28;20029;-76
2021/07/20 00:23:10;;;;;;;1515.80;764.92;;;21.00;81.70;;;;;;5028032;28;20029;-77
2021/07/20 00:25:36;;;;;;;1039.40;537.28;;;21.00;82.00;;;;;;5029508;28;20025;-77
2021/07/20 00:28:02;;;;;;;1516.68;765.80;;;20.90;82.20;;;;;;5029295;28;20033;-77
2021/07/20 00:30:29;;;;;;;1520.20;769.15;;;20.80;82.60;;;;;;5029176;28;20041;-77
2021/07/20 00:32:54;;;;;;;548.80;296.10;;;20.90;82.70;;;;;;5029037;28;20045;-77
2021/07/20 00:35:20;;;;;;;64.68;60.97;;;20.80;82.80;;;;;;5011342;28;20460;-76
2021/07/20 00:37:46;;;;;;;1033.18;531.42;;;20.80;82.80;;;;;;5029250;28;20030;-77
2021/07/20 00:40:15;;;;;;;62.50;58.85;;;20.80;83.00;;;;;;5029162;28;20025;-76
2021/07/20 00:42:41;;;;;;;1999.90;999.90;;;20.80;83.10;;;;;;5029011;28;20076;-77
2021/07/20 00:45:09;;;;;;;1999.90;999.90;;;20.90;83.10;;;;;;5011150;28;20496;-77
2021/07/20 00:47:36;;;;;;;62.33;59.03;;;20.90;83.20;;;;;;5029032;28;20497;-77
2021/07/20 00:50:04;;;;;;;59.00;55.83;;;20.90;83.20;;;;;;5027558;28;20040;-77
2021/07/20 00:52:30;;;;;;;554.83;302.05;;;20.90;83.20;;;;;;5028677;28;20046;-77
2021/07/20 00:54:56;;;;;;;1999.90;999.90;;;20.90;83.10;;;;;;5028819;28;20017;-77
2021/07/20 00:57:23;;;;;;;64.03;60.55;;;20.90;83.10;;;;;;5028724;28;20033;-76
2021/07/20 00:59:49;;;;;;;1999.90;999.90;;;20.90;83.30;;;;;;5028653;28;20435;-77
2021/07/20 01:02:15;;;;;;;61.97;58.22;;;20.90;83.40;;;;;;5028856;28;20021;-77
2021/07/20 01:04:41;;;;;;;1999.90;999.90;;;20.90;83.50;;;;;;5027249;28;20029;-76
2021/07/20 01:07:09;;;;;;;65.35;61.67;;;20.90;83.70;;;;;;5027345;28;20091;-76
2021/07/20 01:09:35;;;;;;;62.85;59.35;;;20.90;83.70;;;;;;5028446;28;20021;-76
2021/07/20 01:12:01;;;;;;;62.45;59.20;;;20.90;83.70;;;;;;5027367;28;20037;-76
2021/07/20 01:14:27;;;;;;;60.20;57.00;;;20.90;83.80;;;;;;5028312;28;20396;-76
2021/07/20 01:16:56;;;;;;;1999.90;999.90;;;20.90;83.90;;;;;;5028292;28;20025;-77
2021/07/20 01:19:26;;;;;;;56.53;53.35;;;20.90;84.10;;;;;;5027096;28;20378;-77
2021/07/20 01:21:53;;;;;;;60.38;57.15;;;20.90;84.00;;;;;;5027776;28;20022;-77
2021/07/20 01:24:19;;;;;;;1999.90;999.90;;;20.90;84.20;;;;;;5026773;28;20372;-77
2021/07/20 01:26:47;;;;;;;1999.90;999.90;;;20.80;84.30;;;;;;5028254;28;20084;-77
2021/07/20 01:29:14;;;;;;;1999.90;999.90;;;20.80;84.50;;;;;;5028239;28;20054;-77
2021/07/20 01:31:42;;;;;;;64.82;61.08;;;20.80;84.60;;;;;;5026696;28;20041;-77
2021/07/20 01:34:11;;;;;;;58.28;54.90;;;20.70;84.80;;;;;;5026727;28;20034;-77
2021/07/20 01:36:39;;;;;;;61.05;57.33;;;20.70;85.00;;;;;;5028086;28;20025;-77
2021/07/20 01:39:09;;;;;;;1999.90;999.90;;;20.70;85.10;;;;;;5027988;28;20018;-77
2021/07/20 01:41:36;;;;;;;1999.90;999.90;;;20.70;85.30;;;;;;5027966;28;20025;-77
2021/07/20 01:44:05;;;;;;;62.40;58.92;;;20.60;85.50;;;;;;5027930;28;20033;-78
2021/07/20 01:46:33;;;;;;;1518.40;767.35;;;20.50;85.70;;;;;;5027707;28;20037;-76
2021/07/20 01:49:01;;;;;;;1999.90;999.90;;;20.50;85.80;;;;;;5027771;28;20040;-77
2021/07/20 01:51:28;;;;;;;1999.90;999.90;;;20.50;85.80;;;;;;5026604;28;20033;-77
2021/07/20 01:53:56;;;;;;;71.90;67.90;;;20.50;86.20;;;;;;5027716;28;20438;-77
2021/07/20 01:56:22;;;;;;;1999.90;999.90;;;20.50;86.40;;;;;;5027770;28;20091;-75
2021/07/20 01:58:48;;;;;;;1999.90;999.90;;;20.50;86.50;;;;;;5026422;28;20026;-77
2021/07/20 02:01:25;;;;;;;72.43;68.35;;;20.50;86.50;;;;;;5027684;28;20064;-76
2021/07/20 02:09:23;;;;;;;1037.57;535.60;;;20.40;86.90;;;;;;5027923;28;20467;-77
2021/07/20 02:11:52;;;;;;;1999.90;999.90;;;20.30;87.30;;;;;;5026302;28;20033;-78
2021/07/20 02:14:19;;;;;;;;;;;20.30;87.30;;;;;;5026440;28;20480;-75
2021/07/20 02:16:48;;;;;;;1999.90;999.90;;;20.30;86.90;;;;;;5027784;28;19929;-76
2021/07/20 02:19:21;;;;;;;1999.90;999.90;;;20.30;86.90;;;;;;5027557;28;20100;-76
2021/07/20 02:21:50;;;;;;;1999.90;999.90;;;20.20;87.30;;;;;;5027451;28;20104;-76
2021/07/20 02:24:18;;;;;;;1999.90;999.90;;;20.20;87.40;;;;;;5027440;28;20056;-77
2021/07/20 02:26:46;;;;;;;1999.90;999.90;;;20.20;87.60;;;;;;5027426;28;20041;-77
2021/07/20 02:29:15;;;;;;;80.57;76.10;;;20.20;88.00;;;;;;5009622;28;20037;-76
2021/07/20 02:31:41;;;;;;;1999.90;999.90;;;20.20;88.10;;;;;;5027008;28;20455;-76
2021/07/20 02:34:08;;;;;;;1999.90;999.90;;;20.20;88.10;;;;;;5031292;28;20035;-77
2021/07/20 02:36:37;;;;;;;1999.90;999.90;;;20.20;88.10;;;;;;5031367;28;20563;-77
2021/07/20 02:39:06;;;;;;;80.78;76.38;;;20.20;88.30;;;;;;5031364;28;20018;-76
2021/07/20 02:41:34;;;;;;;1999.90;999.90;;;20.20;88.30;;;;;;5030098;28;20142;-76
2021/07/20 02:44:01;;;;;;;1520.28;769.13;;;20.20;88.20;;;;;;5031168;28;20096;-77
2021/07/20 02:46:28;;;;;;;567.80;314.05;;;20.20;88.30;;;;;;5031246;28;20029;-77
2021/07/20 02:48:57;;;;;;;1999.90;999.90;;;20.20;88.40;;;;;;5031278;28;20637;-77
2021/07/20 02:51:25;;;;;;;84.87;80.23;;;20.20;88.60;;;;;;5030003;28;20038;-75
2021/07/20 02:53:54;;;;;;;92.22;87.28;;;20.20;88.50;;;;;;5029744;28;20403;-76
2021/07/20 02:56:21;;;;;;;1999.90;999.90;;;20.20;88.50;;;;;;5031029;28;20022;-76
2021/07/20 02:58:50;;;;;;;81.30;76.40;;;20.20;88.60;;;;;;5031041;28;20033;-77
2021/07/20 03:01:17;;;;;;;1521.55;770.40;;;20.20;88.50;;;;;;5029734;28;20029;-78
2021/07/20 03:03:44;;;;;;;93.60;88.65;;;20.30;88.30;;;;;;5030812;28;20048;-76
2021/07/20 03:06:11;;;;;;;87.72;83.03;;;20.30;88.10;;;;;;5029611;28;20236;-77
2021/07/20 03:08:38;;;;;;;96.13;90.82;;;20.30;88.20;;;;;;5030826;28;20025;-76
2021/07/20 03:11:07;;;;;;;81.95;77.38;;;20.30;88.20;;;;;;5030847;28;20051;-76
2021/07/20 03:13:39;;;;;;;94.63;89.72;;;20.30;88.20;;;;;;5029336;28;20025;-76
2021/07/20 03:16:08;;;;;;;93.88;88.60;;;20.30;88.20;;;;;;5030809;28;20017;-77
2021/07/20 03:18:36;;;;;;;72.55;68.57;;;20.20;88.20;;;;;;5029347;28;20021;-77
2021/07/20 03:21:02;;;;;;;70.75;66.93;;;20.20;88.20;;;;;;5030673;28;20380;-78
2021/07/20 03:23:29;;;;;;;90.72;85.63;;;20.30;88.20;;;;;;5030401;28;20034;-77
2021/07/20 03:25:59;;;;;;;95.47;90.40;;;20.30;88.10;;;;;;5030516;28;20056;-77
2021/07/20 03:28:26;;;;;;;82.10;77.82;;;20.30;88.00;;;;;;5029256;28;20380;-77
2021/07/20 03:30:53;;;;;;;102.45;97.10;;;20.20;87.90;;;;;;5030202;28;20047;-76
2021/07/20 03:33:21;;;;;;;91.38;86.35;;;20.20;87.80;;;;;;5030295;28;20396;-77
2021/07/20 03:35:49;;;;;;;80.90;76.72;;;20.20;88.00;;;;;;5030287;28;20391;-77
2021/07/20 03:38:20;;;;;;;81.47;76.80;;;20.10;88.10;;;;;;5030302;28;20049;-76
2021/07/20 03:40:51;;;;;;;89.57;84.65;;;20.20;88.00;;;;;;5030332;28;20495;-76
2021/07/20 03:43:22;;;;;;;93.45;88.55;;;20.20;87.90;;;;;;5029534;28;20038;-77
2021/07/20 03:45:49;;;;;;;96.20;91.05;;;20.10;87.90;;;;;;5030273;28;20061;-78
2021/07/20 03:48:16;;;;;;;89.65;84.90;;;20.10;87.90;;;;;;5030130;28;20032;-77
2021/07/20 03:50:45;;;;;;;115.30;109.38;;;20.10;87.90;;;;;;5030006;28;20108;-77
2021/07/20 03:53:12;;;;;;;77.93;73.57;;;20.10;88.10;;;;;;5028480;28;20510;-77
2021/07/20 03:55:45;;;;;;;93.93;88.88;;;20.10;87.90;;;;;;5029917;28;20611;-76
2021/07/20 03:58:13;;;;;;;104.18;98.72;;;20.10;88.00;;;;;;5029790;28;20090;-77
2021/07/20 04:00:39;;;;;;;110.20;104.40;;;20.10;87.90;;;;;;5029807;28;20029;-78
2021/07/20 04:05:52;;;;;;;114.65;108.63;;;20.00;87.80;;;;;;5030018;28;20061;-76
2021/07/20 04:08:19;;;;;;;1063.28;560.08;;;20.00;87.80;;;;;;5029684;28;20100;-78
2021/07/20 04:10:47;;;;;;;118.25;112.18;;;20.00;88.20;;;;;;5029991;28;20025;-77
2021/07/20 04:13:13;;;;;;;127.95;121.43;;;20.00;87.80;;;;;;5029453;28;20395;-78
2021/07/20 04:15:45;;;;;;;123.65;117.50;;;20.00;87.80;;;;;;5029631;28;20052;-77
2021/07/20 04:18:11;;;;;;;114.07;108.28;;;20.00;87.90;;;;;;5028366;28;20036;-75
2021/07/20 04:20:38;;;;;;;129.65;122.75;;;20.00;87.80;;;;;;5028229;28;20396;-76
2021/07/20 04:23:05;;;;;;;152.85;145.23;;;19.90;87.80;;;;;;5029490;28;20040;-77
2021/07/20 04:25:32;;;;;;;182.60;173.43;;;19.90;87.80;;;;;;5028075;28;20408;-77
2021/07/20 04:27:58;;;;;;;262.30;247.40;;;19.90;87.80;;;;;;5028089;28;20112;-77
2021/07/20 04:30:23;;;;;;;146.82;139.32;;;19.90;87.90;;;;;;5029137;28;20615;-77
2021/07/20 04:32:50;;;;;;;186.55;177.23;;;19.90;87.90;;;;;;5027875;28;20030;-76
2021/07/20 04:35:17;;;;;;;214.70;203.75;;;19.90;87.90;;;;;;5027964;28;20059;-76
2021/07/20 04:37:44;;;;;;;288.15;272.52;;;19.90;88.00;;;;;;5027721;28;20025;-77
2021/07/20 04:40:14;;;;;;;169.00;160.23;;;19.90;88.00;;;;;;5029157;28;20037;-76
2021/07/20 04:42:41;;;;;;;194.35;184.73;;;19.90;87.90;;;;;;5027675;28;20496;-77
2021/07/20 04:45:09;;;;;;;208.52;197.95;;;19.80;87.80;;;;;;5029250;28;20032;-77
2021/07/20 04:47:37;;;;;;;189.32;179.80;;;19.90;87.90;;;;;;5029263;28;20527;-77
2021/07/20 04:50:05;;;;;;;157.63;149.65;;;19.90;87.90;;;;;;5028965;28;20025;-77
2021/07/20 04:52:32;;;;;;;179.20;170.27;;;19.90;87.90;;;;;;5028732;28;20099;-77
2021/07/20 04:54:58;;;;;;;174.00;165.43;;;19.90;87.90;;;;;;5027963;28;20030;-77
2021/07/20 04:57:24;;;;;;;244.88;232.15;;;19.90;87.90;;;;;;5027363;28;20384;-76
2021/07/20 04:59:50;;;;;;;169.90;161.27;;;19.90;87.90;;;;;;5027390;28;20021;-76
2021/07/20 05:02:16;;;;;;;190.75;181.38;;;19.90;88.00;;;;;;5011191;28;20079;-77
2021/07/20 05:04:43;;;;;;;171.88;163.25;;;20.00;88.10;;;;;;5027462;28;20026;-77
2021/07/20 05:07:15;;;;;;;174.15;165.27;;;20.00;88.20;;;;;;5028646;28;20033;-77
2021/07/20 05:09:43;;;;;;;160.88;152.52;;;20.00;88.30;;;;;;5028514;28;20043;-77
2021/07/20 05:12:11;;;;;;;180.48;171.52;;;20.00;88.30;;;;;;5027347;28;20439;-76
2021/07/20 05:14:38;;;;;;;166.02;157.50;;;20.00;88.90;;;;;;5028579;28;20021;-76
2021/07/20 05:17:08;;;;;;;192.65;182.98;;;20.10;88.50;;;;;;5028401;28;20026;-77
2021/07/20 05:19:35;;;;;;;185.48;176.10;;;20.10;88.60;;;;;;5027329;28;20511;-77
2021/07/20 05:22:03;;;;;;;170.13;161.63;;;20.10;88.60;;;;;;5028298;28;20033;-77
2021/07/20 05:24:31;;;;;;;167.52;159.00;;;20.20;88.50;;;;;;5026859;28;20029;-76
2021/07/20 05:27:01;;;;;;;161.10;153.00;;;20.30;88.60;;;;;;5028008;28;20396;-76
2021/07/20 05:29:27;;;;;;;189.57;179.60;;;20.30;88.50;;;;;;5027800;28;20033;-76
2021/07/20 05:31:55;;;;;;;182.07;172.95;;;20.30;88.40;;;;;;5026840;28;20396;-78
2021/07/20 05:34:22;;;;;;;166.70;158.23;;;20.40;88.70;;;;;;5026595;28;20488;-77
2021/07/20 05:36:48;;;;;;;167.52;158.93;;;20.40;88.90;;;;;;5028051;28;20029;-75
2021/07/20 05:39:14;;;;;;;171.45;162.73;;;20.40;89.10;;;;;;5027933;28;20095;-77
2021/07/20 05:41:44;;;;;;;170.82;162.13;;;20.50;89.10;;;;;;5010409;28;20032;-77
2021/07/20 05:44:14;;;;;;;166.00;157.48;;;20.60;89.20;;;;;;5026501;28;20029;-77
2021/07/20 05:46:44;;;;;;;186.27;176.75;;;20.60;89.20;;;;;;5027900;28;20029;-77
2021/07/20 05:49:14;;;;;;;147.63;140.13;;;20.60;89.20;;;;;;5027732;28;20026;-77
2021/07/20 05:51:41;;;;;;;162.65;154.38;;;20.70;89.20;;;;;;5026247;28;20025;-77
2021/07/20 05:54:08;;;;;;;173.40;164.35;;;20.80;89.40;;;;;;5027565;28;20034;-76
2021/07/20 05:56:35;;;;;;;270.58;255.57;;;20.80;89.40;;;;;;5027315;28;20029;-77
2021/07/20 05:59:01;;;;;;;261.48;247.85;;;20.90;89.60;;;;;;5027707;28;20032;-76
2021/07/20 06:01:31;;;;;;;131.98;124.68;;;20.90;89.60;;;;;;5027860;28;20018;-76
2021/07/20 06:03:57;;;;;;;;;;;21.00;90.00;;;;;;5027944;28;20064;-75
2021/07/20 06:06:30;;;;;;;163.88;155.52;;;21.20;89.50;;;;;;5027265;28;20316;-77
2021/07/20 06:08:56;;;;;;;145.80;138.35;;;21.30;89.10;;;;;;5026242;28;20503;-77
2021/07/20 06:11:23;;;;;;;153.60;145.32;;;21.40;89.10;;;;;;5027587;28;20087;-77
2021/07/20 06:13:52;;;;;;;109.25;103.63;;;21.60;89.70;;;;;;5027290;28;20026;-78
2021/07/20 06:16:21;;;;;;;76.93;72.50;;;22.30;90.00;;;;;;5026469;28;20464;-77
2021/07/20 06:18:47;;;;;;;95.72;90.20;;;23.40;88.60;;;;;;5025944;28;20033;-76
2021/07/20 06:21:14;;;;;;;45.03;42.20;;;24.50;86.20;;;;;;5027493;28;20502;-77
2021/07/20 06:23:43;;;;;;;92.97;88.05;;;25.50;83.90;;;;;;5026903;28;20421;-77
2021/07/20 06:26:10;;;;;;;67.95;64.38;;;26.30;81.50;;;;;;5027129;28;20021;-77
2021/07/20 06:28:37;;;;;;;70.85;67.00;;;26.90;79.60;;;;;;5027382;28;20021;-76
2021/07/20 06:31:03;;;;;;;53.28;50.20;;;27.30;77.40;;;;;;5026983;28;20404;-78
2021/07/20 06:33:32;;;;;;;46.25;43.67;;;27.00;76.30;;;;;;5025785;28;20029;-77
2021/07/20 06:36:00;;;;;;;58.38;55.22;;;26.90;77.00;;;;;;5027078;28;20472;-77
2021/07/20 06:38:26;;;;;;;94.63;89.63;;;27.40;76.70;;;;;;5025764;28;20068;-78
2021/07/20 06:40:53;;;;;;;73.32;69.50;;;28.10;75.50;;;;;;5027122;28;20361;-77
2021/07/20 06:43:21;;;;;;;65.63;61.63;;;28.80;74.10;;;;;;5026883;28;20025;-77
2021/07/20 06:45:48;;;;;;;112.68;106.57;;;29.40;72.70;;;;;;5025766;28;20037;-77
2021/07/20 06:48:17;;;;;;;47.25;44.53;;;29.90;71.20;;;;;;5026918;28;20061;-77
2021/07/20 06:50:43;;;;;;;49.58;46.90;;;30.30;69.70;;;;;;5027075;28;20373;-77
2021/07/20 06:53:13;;;;;;;43.90;41.35;;;30.60;68.70;;;;;;5026762;28;20036;-77
2021/07/20 06:55:46;;;;;;;40.10;37.80;;;31.00;67.60;;;;;;5026792;28;20484;-76
2021/07/20 06:58:13;;;;;;;63.35;59.53;;;31.20;66.20;;;;;;5026815;28;20055;-78
2021/07/20 07:00:41;;;;;;;40.17;37.97;;;31.10;65.50;;;;;;5026889;28;20112;-78
2021/07/20 07:03:09;;;;;;;51.35;48.60;;;31.20;65.30;;;;;;5026973;28;20091;-77
2021/07/20 07:05:35;;;;;;;41.92;39.38;;;31.40;64.70;;;;;;5026908;28;20033;-76
2021/07/20 07:08:02;;;;;;;52.08;49.03;;;31.20;63.40;;;;;;5027333;28;20029;-76
2021/07/20 07:10:29;;;;;;;58.00;53.95;;;30.70;63.20;;;;;;5026691;28;20380;-77
2021/07/20 07:12:56;;;;;;;68.05;64.43;;;30.10;63.50;;;;;;5026669;28;20033;-77
2021/07/20 07:15:23;;;;;;;71.72;67.85;;;29.40;64.00;;;;;;5026642;28;20029;-77
2021/07/20 07:17:51;;;;;;;49.28;46.20;;;28.80;65.00;;;;;;5025620;28;20247;-78
2021/07/20 07:20:20;;;;;;;72.60;68.60;;;28.50;66.10;;;;;;5028764;28;20168;-77
2021/07/20 07:22:47;;;;;;;136.32;125.13;;;28.80;66.70;;;;;;5028951;28;20036;-77
2021/07/20 07:25:15;;;;;;;67.22;63.50;;;29.60;66.20;;;;;;5028879;28;20519;-77
2021/07/20 07:27:43;;;;;;;62.65;59.13;;;30.20;65.00;;;;;;5029056;28;20112;-77
2021/07/20 07:30:10;;;;;;;64.80;60.83;;;30.90;64.40;;;;;;5030057;28;20179;-77
2021/07/20 07:32:37;;;;;;;46.50;42.92;;;31.70;63.70;;;;;;5030120;28;20083;-76
2021/07/20 07:35:03;;;;;;;44.80;42.10;;;32.30;62.40;;;;;;5030089;28;20041;-77
2021/07/20 07:37:30;;;;;;;28.63;26.73;;;32.90;61.80;;;;;;5030113;28;20025;-76
2021/07/20 07:39:59;;;;;;;27.13;25.33;;;33.50;60.80;;;;;;5030098;28;20056;-76
2021/07/20 07:42:25;;;;;;;30.85;28.65;;;34.20;60.10;;;;;;5029717;28;20013;-77
2021/07/20 07:44:52;;;;;;;31.50;29.60;;;34.70;59.20;;;;;;5029613;28;20037;-77
2021/07/20 07:47:18;;;;;;;72.47;66.93;;;35.00;58.20;;;;;;5029826;28;20029;-77
2021/07/20 07:49:45;;;;;;;34.80;32.58;;;35.40;57.10;;;;;;5029555;28;20477;-77
2021/07/20 07:52:12;;;;;;;34.70;32.10;;;35.50;56.00;;;;;;5028921;28;20033;-76
2021/07/20 07:54:40;;;;;;;37.90;34.78;;;35.50;55.40;;;;;;5028909;28;20036;-77
2021/07/20 07:57:06;;;;;;;33.55;31.15;;;35.70;55.30;;;;;;5027793;28;20129;-77
2021/07/20 07:59:33;;;;;;;36.03;34.03;;;36.00;54.90;;;;;;5029696;28;20118;-78
2021/07/20 08:02:02;;;;;;;56.88;53.67;;;36.20;54.20;;;;;;5029466;28;20068;-77
2021/07/20 08:04:30;;;;;;;56.38;53.33;;;36.50;54.10;;;;;;5029264;28;20068;-77
2021/07/20 08:06:58;;;;;;;46.28;43.55;;;36.70;53.70;;;;;;5029237;28;20033;-77
2021/07/20 08:09:27;;;;;;;58.85;54.95;;;36.80;53.40;;;;;;5029274;28;20022;-77
2021/07/20 08:11:53;;;;;;;;;;;36.90;53.10;;;;;;5030022;28;20022;-77
2021/07/20 08:14:19;;;;;;;43.88;41.28;;;37.40;54.30;;;;;;5029180;28;20189;-77
2021/07/20 08:16:48;;;;;;;39.28;37.10;;;38.10;53.20;;;;;;5028917;28;20033;-76
2021/07/20 08:19:16;;;;;;;32.58;30.65;;;38.40;51.90;;;;;;5028504;28;20044;-77
2021/07/20 08:21:45;;;;;;;28.42;26.70;;;38.70;51.40;;;;;;5027618;28;20021;-78
2021/07/20 08:24:13;;;;;;;31.90;30.05;;;38.90;50.70;;;;;;5028768;28;20036;-78
2021/07/20 08:27:13;;;;;;;38.65;36.05;;;39.10;50.10;;;;;;5029137;28;20030;-74
2021/07/20 08:29:44;;;;;;;29.13;27.25;;;39.10;49.70;;;;;;5027241;28;20045;-76
2021/07/20 08:32:14;;;;;;;24.55;23.10;;;39.20;49.60;;;;;;5028681;28;20025;-76
2021/07/20 08:34:49;;;;;;;25.02;23.17;;;39.40;49.40;;;;;;5028684;28;20396;-75
2021/07/20 08:37:17;;;;;;;25.35;23.73;;;39.60;48.90;;;;;;5028582;28;20025;-77
2021/07/20 08:39:45;;;;;;;26.00;24.23;;;39.70;48.50;;;;;;5028641;28;20024;-76
2021/07/20 08:42:55;;;;;;;27.00;24.88;;;39.80;48.30;;;;;;5028719;28;20043;-76
2021/07/20 08:45:29;;;;;;;25.17;23.58;;;39.80;48.00;;;;;;5028633;28;20033;-76
2021/07/20 08:47:55;;;;;;;32.47;29.80;;;39.90;48.10;;;;;;5028695;28;20021;-75
2021/07/20 08:50:57;;;;;;;40.60;38.30;;;40.10;47.90;;;;;;5028500;28;20098;-76
2021/07/20 08:54:00;;;;;;;54.53;51.38;;;40.40;47.90;;;;;;5023867;28;20037;-76
2021/07/20 08:56:28;;;;;;;82.15;77.63;;;40.80;47.50;;;;;;5028239;28;20041;-76
2021/07/20 08:59:03;;;;;;;61.67;57.72;;;41.20;47.40;;;;;;5028038;28;20029;-76
2021/07/20 09:01:44;;;;;;;66.38;62.50;;;41.50;46.80;;;;;;5026745;28;20033;-77
2021/07/20 09:04:20;;;;;;;144.73;137.43;;;41.70;46.10;;;;;;5027752;28;20018;-77
2021/07/20 09:06:57;;;;;;;149.85;142.35;;;41.70;45.90;;;;;;5028169;28;20022;-77
2021/07/20 09:09:38;;;;;;;219.55;208.55;;;41.80;45.90;;;;;;5027917;28;20021;-76
2021/07/20 09:12:14;;;;;;;169.10;160.35;;;42.20;45.60;;;;;;5027775;28;20378;-77
2021/07/20 09:14:51;;;;;;;180.77;171.85;;;42.10;45.00;;;;;;5027786;28;20025;-77
2021/07/20 09:17:28;;;;;;;112.85;106.78;;;42.00;44.90;;;;;;5027843;28;20028;-77
2021/07/20 09:20:07;;;;;;;221.40;210.13;;;42.00;45.00;;;;;;5027418;28;20018;-76
2021/07/20 09:22:47;;;;;;;167.90;158.88;;;42.10;44.90;;;;;;5028555;28;20018;-79
2021/07/20 09:25:54;;;;;;;170.73;161.75;;;42.40;44.40;;;;;;5029741;28;20025;-78
2021/07/20 09:28:44;;;;;;;222.30;211.30;;;42.20;44.00;;;;;;5020136;28;20440;-79
2021/07/20 09:31:20;;;;;;;291.98;277.38;;;42.00;44.40;;;;;;5029786;28;20045;-79
2021/07/20 09:34:19;;;;;;;200.10;189.43;;;42.10;44.70;;;;;;5029542;28;20035;-79
2021/07/20 09:36:52;;;;;;;271.13;257.95;;;42.20;44.40;;;;;;5028103;28;20022;-79
2021/07/20 09:39:39;;;;;;;319.20;303.58;;;42.40;44.30;;;;;;5029637;28;20750;-78
2021/07/20 09:42:31;;;;;;;222.07;210.40;;;42.30;44.40;;;;;;5027982;28;20028;-80
2021/07/20 09:45:08;;;;;;;225.82;214.38;;;42.50;44.20;;;;;;5028494;28;20024;-78
2021/07/20 09:47:55;;;;;;;239.88;227.38;;;42.60;44.20;;;;;;5009949;28;20041;-77
2021/07/20 09:50:23;;;;;;;263.13;250.38;;;43.10;44.10;;;;;;5014487;28;20036;-79
2021/07/20 09:53:22;;;;;;;155.80;148.07;;;43.30;43.60;;;;;;5028844;28;20025;-78
2021/07/20 09:55:57;;;;;;;238.55;225.48;;;43.10;43.30;;;;;;5027580;28;20064;-79
2021/07/20 09:58:33;;;;;;;166.00;157.65;;;43.00;43.10;;;;;;5029142;28;20025;-78
2021/07/20 10:01:15;;;;;;;363.58;339.35;;;42.70;43.10;;;;;;5028860;28;20108;-78
2021/07/20 10:03:49;;;;;;;406.02;369.60;;;42.60;43.20;;;;;;5026890;28;20103;-78
2021/07/20 10:06:21;;;;;;;215.32;203.85;;;42.80;43.30;;;;;;5013742;28;20033;-79
2021/07/20 10:09:03;;;;;;;273.08;259.55;;;42.90;42.70;;;;;;5027450;28;20421;-75
2021/07/20 10:11:47;;;;;;;284.63;265.45;;;42.70;42.60;;;;;;5028682;28;20022;-79
2021/07/20 10:14:23;;;;;;;181.63;170.20;;;42.50;42.60;;;;;;5026560;28;20053;-80
2021/07/20 10:17:20;;;;;;;322.52;306.60;;;42.40;42.60;;;;;;5028080;28;20022;-79
2021/07/20 10:20:00;;;;;;;479.27;446.77;;;42.50;42.90;;;;;;5028535;28;20033;-78
2021/07/20 10:22:36;;;;;;;206.48;196.48;;;43.10;43.00;;;;;;5027835;28;20385;-80
2021/07/20 10:25:06;;;;;;;252.20;237.35;;;43.20;42.20;;;;;;5029922;28;20021;-79
2021/07/20 10:27:54;;;;;;;342.77;322.13;;;43.10;42.10;;;;;;5036434;28;20445;-81
2021/07/20 10:30:23;;;;;;;184.60;175.30;;;43.10;42.20;;;;;;5020201;28;20488;-80
2021/07/20 10:33:20;;;;;;;187.82;178.38;;;43.30;42.30;;;;;;5028104;28;20492;-79
2021/07/20 10:36:00;;;;;;;160.43;152.50;;;43.40;42.00;;;;;;5025159;28;20030;-82
2021/07/20 10:38:33;;;;;;;155.43;147.95;;;43.20;42.10;;;;;;5023610;28;20032;-80
2021/07/20 10:41:03;;;;;;;130.35;123.13;;;43.30;42.40;;;;;;5029797;28;20422;-80
2021/07/20 10:43:39;;;;;;;104.82;99.15;;;43.60;42.10;;;;;;5029478;28;20049;-79
2021/07/20 10:46:08;;;;;;;62.20;58.38;;;43.90;41.80;;;;;;5030394;28;20032;-81
2021/07/20 10:48:37;;;;;;;;;;;44.00;41.80;;;;;;5029998;28;20087;-80
2021/07/20 10:51:11;;;;;;;51.95;49.25;;;44.30;42.40;;;;;;5029343;28;20010;-78
2021/07/20 10:53:46;;;;;;;60.78;57.67;;;44.30;41.90;;;;;;5028398;28;20036;-80
2021/07/20 10:56:22;;;;;;;51.45;48.33;;;44.20;41.70;;;;;;5031259;28;20045;-82
2021/07/20 10:58:51;;;;;;;59.08;55.53;;;44.40;41.70;;;;;;5033125;28;20080;-80
2021/07/20 11:01:20;;;;;;;45.20;42.40;;;44.60;41.40;;;;;;5031508;28;20021;-80
2021/07/20 11:04:27;;;;;;;50.83;47.95;;;44.80;41.20;;;;;;5031310;28;20087;-81
2021/07/20 11:06:53;;;;;;;39.78;37.58;;;44.80;41.00;;;;;;5021978;28;20044;-81
2021/07/20 11:09:22;;;;;;;51.25;48.40;;;44.70;40.90;;;;;;5032448;28;20056;-78
2021/07/20 11:11:53;;;;;;;50.55;47.65;;;44.40;40.80;;;;;;5032144;28;20072;-80
2021/07/20 11:14:23;;;;;;;76.88;72.68;;;44.10;40.80;;;;;;5033455;28;20021;-77
2021/07/20 11:16:49;;;;;;;67.05;63.55;;;44.00;40.90;;;;;;5032065;28;20371;-77
2021/07/20 11:19:16;;;;;;;84.90;80.45;;;44.00;40.80;;;;;;5030835;28;20484;-77
2021/07/20 11:21:43;;;;;;;83.18;78.90;;;43.80;40.80;;;;;;5029782;28;20113;-78
2021/07/20 11:24:13;;;;;;;101.20;95.75;;;43.80;41.00;;;;;;5029075;28;20450;-78
2021/07/20 11:26:39;;;;;;;92.13;86.90;;;44.10;40.90;;;;;;5027337;28;20033;-77
2021/07/20 11:29:05;;;;;;;78.63;73.80;;;44.30;40.80;;;;;;5028943;28;20075;-78
2021/07/20 11:31:40;;;;;;;312.52;288.50;;;44.20;40.80;;;;;;5028700;28;20048;-78
2021/07/20 11:34:11;;;;;;;127.13;120.18;;;43.90;40.70;;;;;;5029771;28;20021;-79
2021/07/20 11:36:44;;;;;;;160.90;152.32;;;43.50;40.70;;;;;;5027811;28;20013;-77
2021/07/20 11:39:15;;;;;;;160.65;152.75;;;43.20;40.90;;;;;;5029725;28;20017;-77
2021/07/20 11:42:02;;;;;;;82.03;77.50;;;42.70;41.00;;;;;;5029950;28;20388;-79
2021/07/20 11:44:42;;;;;;;267.13;252.57;;;42.30;42.00;;;;;;5029613;28;20036;-77
2021/07/20 11:47:13;;;;;;;307.58;292.38;;;42.30;41.30;;;;;;5044622;28;20052;-78
2021/07/20 11:50:12;;;;;;;268.20;254.38;;;42.20;41.30;;;;;;5028105;28;20494;-77
2021/07/20 11:52:47;;;;;;;306.38;290.83;;;42.20;41.40;;;;;;5026406;28;20384;-78
2021/07/20 11:55:22;;;;;;;418.23;392.60;;;42.40;41.70;;;;;;5033030;28;20032;-78
2021/07/20 11:58:31;;;;;;;340.30;323.02;;;42.50;41.70;;;;;;5032205;28;20029;-78
2021/07/20 12:01:27;;;;;;;324.35;307.98;;;42.40;41.50;;;;;;5023228;28;20018;-79
2021/07/20 12:03:59;;;;;;;493.17;453.45;;;42.50;41.60;;;;;;5031555;28;20040;-78
2021/07/20 12:07:20;;;;;;;321.00;302.42;;;42.40;41.70;;;;;;5030173;28;20073;-78
2021/07/20 12:10:06;;;;;;;327.90;311.83;;;42.00;41.40;;;;;;4994941;28;20025;-78
2021/07/20 12:12:51;;;;;;;287.67;273.70;;;41.50;41.80;;;;;;5020738;28;20064;-79
2021/07/20 12:15:22;;;;;;;313.83;296.75;;;41.40;42.20;;;;;;5027028;28;20022;-78
2021/07/20 12:17:49;;;;;;;322.08;306.08;;;41.50;42.10;;;;;;5030660;28;20022;-78
2021/07/20 12:20:18;;;;;;;260.02;247.30;;;41.50;42.00;;;;;;5030374;28;20083;-76
2021/07/20 12:22:52;;;;;;;253.80;241.55;;;41.40;41.80;;;;;;5030682;28;20018;-78
2021/07/20 12:25:19;;;;;;;335.05;315.00;;;41.30;41.90;;;;;;5030704;28;20029;-77
2021/07/20 12:27:47;;;;;;;524.53;474.80;;;41.30;41.90;;;;;;5030048;28;20018;-78
2021/07/20 12:30:17;;;;;;;230.85;219.50;;;41.40;41.70;;;;;;5027918;28;20483;-77
2021/07/20 12:32:43;;;;;;;260.38;247.95;;;41.30;41.50;;;;;;5023925;28;20469;-77
2021/07/20 12:35:15;;;;;;;280.77;267.00;;;41.10;41.90;;;;;;5029104;28;20444;-76
2021/07/20 12:37:41;;;;;;;235.52;223.90;;;40.90;41.70;;;;;;5029656;28;20034;-77
2021/07/20 12:40:10;;;;;;;308.95;285.98;;;40.90;41.70;;;;;;5030244;28;20033;-78
2021/07/20 12:42:36;;;;;;;;;;;40.80;41.70;;;;;;5028871;28;20033;-81